Adak Island, Alaska
Current Conditions -  °F | °C
As of 4:36 AM on Thursday 23 Oct 2014 (Local Time) from PADK Reporting Station
Clear Clear  
Wind Chill: 37°   Ceiling: Unl
Heat Index: 46°   Visibility: 10mi
Dew Point: 34°   Wind: 31mph
Humidity: 62%   Direction: 230°SW
Pressure: 30.18"   Gusts: 37mph
Location:  51.88°N, 176.65°W
Report Text: PADK 231336Z AUTO 23027G32KT 10SM CLR 08/01 A3018 RMK AO1
Loading
Personal Weather Stations






























Interactive Weather Map
Tropical Storm Tracking
New forecast layout! Learn more

10-Day Weather Forecast

Advertisements
Track Severe Weather on mobile